Time;durP1;ratioP1;P1;durP2;ratioP2;P2;SDS_P1;SDS_P2;PMS_P1;PMS_P2;Temp;Humidity;BMP_temperature;BMP_pressure;BME280_temperature;BME280_humidity;BME280_pressure;Samples;Min_cycle;Max_cycle;Signal;HPM_P1;HPM_P2
2023/09/05 00:01:54;;;;;;;4.40;1.88;;;;;;;19.18;68.99;101700.16;5024742;28;20049;-70
2023/09/05 00:04:19;;;;;;;4.93;1.63;;;;;;;19.13;69.27;101692.03;5019839;28;20033;-69
2023/09/05 00:06:46;;;;;;;5.13;1.90;;;;;;;19.22;68.86;101687.47;5014087;28;20072;-70
2023/09/05 00:09:13;;;;;;;6.00;2.00;;;;;;;19.08;69.77;101683.94;5022017;28;20677;-70
2023/09/05 00:11:39;;;;;;;3.20;1.90;;;;;;;19.00;69.79;101698.00;5019475;28;20060;-70
2023/09/05 00:14:04;;;;;;;3.95;1.90;;;;;;;19.10;69.11;101686.34;5028508;28;20082;-70
2023/09/05 00:16:30;;;;;;;3.83;1.80;;;;;;;19.01;69.46;101681.22;5028688;28;20488;-70
2023/09/05 00:18:56;;;;;;;4.80;1.83;;;;;;;19.00;69.25;101682.22;5027360;28;20037;-70
2023/09/05 00:21:22;;;;;;;3.75;2.03;;;;;;;19.08;68.73;101683.94;5025263;28;20037;-70
2023/09/05 00:23:47;;;;;;;3.05;1.80;;;;;;;19.09;68.52;101682.91;5027263;28;20053;-71
2023/09/05 00:26:13;;;;;;;4.50;1.70;;;;;;;19.03;68.25;101687.13;5009525;28;20524;-70
2023/09/05 00:28:41;;;;;;;4.28;2.50;;;;;;;19.11;68.01;101683.53;5023287;28;20048;-70
2023/09/05 00:31:06;;;;;;;3.00;1.48;;;;;;;19.04;68.04;101693.16;5028735;28;20075;-71
2023/09/05 00:33:32;;;;;;;7.88;2.10;;;;;;;19.00;68.40;101690.09;5022935;28;20033;-71
2023/09/05 00:35:57;;;;;;;5.80;1.80;;;;;;;19.10;67.91;101696.84;5022429;28;20048;-70
2023/09/05 00:38:23;;;;;;;5.00;1.73;;;;;;;19.10;67.98;101688.97;5024838;28;20544;-72
2023/09/05 00:40:49;;;;;;;5.22;1.65;;;;;;;19.16;67.37;101688.22;5022419;28;20492;-70
2023/09/05 00:43:18;;;;;;;4.55;1.63;;;;;;;19.18;66.94;101689.66;5026080;28;20021;-70
2023/09/05 00:45:55;;;;;;;4.13;1.65;;;;;;;19.19;67.27;101686.03;5020164;28;20044;-70
2023/09/05 00:48:27;;;;;;;4.78;1.77;;;;;;;19.17;67.48;101685.38;5027093;28;20357;-70
2023/09/05 00:50:56;;;;;;;9.20;2.03;;;;;;;19.22;67.23;101688.25;5024212;28;20037;-70
2023/09/05 00:53:24;;;;;;;6.60;2.35;;;;;;;19.13;67.66;101686.78;5023404;28;20060;-70
2023/09/05 00:55:50;;;;;;;7.35;1.95;;;;;;;19.11;68.04;101685.34;5021138;28;20071;-71
2023/09/05 00:58:17;;;;;;;3.70;1.90;;;;;;;19.10;67.60;101681.91;5021447;28;20056;-70
2023/09/05 01:00:43;;;;;;;8.52;2.08;;;;;;;18.98;68.68;101678.19;5005697;28;20046;-71
2023/09/05 01:03:08;;;;;;;3.05;1.77;;;;;;;19.15;67.50;101676.88;5025576;28;20084;-70
2023/09/05 01:05:36;;;;;;;3.10;1.77;;;;;;;19.14;67.26;101674.47;5024140;28;20029;-70
2023/09/05 01:08:04;;;;;;;4.45;1.95;;;;;;;19.11;67.71;101677.47;5021406;28;20516;-72
2023/09/05 01:10:55;;;;;;;3.00;1.85;;;;;;;19.05;68.09;101686.94;5023614;28;20068;-69
2023/09/05 01:13:28;;;;;;;3.80;2.00;;;;;;;19.03;67.96;101679.22;5004065;28;20537;-69
2023/09/05 01:15:54;;;;;;;3.78;1.80;;;;;;;19.05;68.09;101682.47;4991577;28;20139;-69
2023/09/05 01:18:20;;;;;;;4.95;1.88;;;;;;;19.02;68.10;101680.25;5023161;28;20083;-69
2023/09/05 01:21:06;;;;;;;3.80;1.88;;;;;;;18.94;68.24;101675.09;5015487;28;20038;-70
2023/09/05 01:23:42;;;;;;;4.78;2.00;;;;;;;19.06;68.23;101673.59;5033990;28;20029;-70
2023/09/05 01:26:09;;;;;;;5.45;1.77;;;;;;;18.95;68.18;101670.66;5022987;28;20403;-69
2023/09/05 01:28:35;;;;;;;3.78;1.95;;;;;;;18.98;68.60;101678.19;5031978;28;20049;-70
2023/09/05 01:31:01;;;;;;;7.95;1.90;;;;;;;18.98;68.22;101678.97;5020679;28;20156;-70
2023/09/05 01:33:27;;;;;;;2.78;1.60;;;;;;;18.97;68.51;101672.13;5024166;28;20043;-69
2023/09/05 01:35:52;;;;;;;7.38;2.25;;;;;;;18.84;68.92;101669.38;5018148;28;20042;-70
2023/09/05 01:38:17;;;;;;;2.70;1.40;;;;;;;18.86;68.69;101668.19;5034643;28;20399;-70
2023/09/05 01:40:43;;;;;;;7.88;1.98;;;;;;;18.96;68.39;101667.03;5045663;28;20033;-70
2023/09/05 01:43:08;;;;;;;2.78;1.75;;;;;;;18.93;68.59;101665.63;5030921;28;20467;-70
2023/09/05 01:45:34;;;;;;;4.88;2.05;;;;;;;18.98;68.30;101662.41;5040334;28;20372;-70
2023/09/05 01:48:01;;;;;;;4.15;2.20;;;;;;;18.81;69.05;101664.50;5029443;28;20499;-69
2023/09/05 01:50:32;;;;;;;5.55;1.98;;;;;;;18.75;69.50;101678.38;5020460;28;20037;-71
2023/09/05 01:52:57;;;;;;;4.35;1.90;;;;;;;18.78;69.20;101672.72;5016928;28;20053;-69
2023/09/05 01:55:23;;;;;;;4.05;1.92;;;;;;;18.74;69.47;101666.22;5019947;28;20108;-70
2023/09/05 01:57:48;;;;;;;8.43;1.83;;;;;;;18.85;68.57;101657.84;5020223;28;20030;-70
2023/09/05 02:00:17;;;;;;;5.80;1.77;;;;;;;18.87;69.07;101658.47;5020351;28;20037;-70
2023/09/05 02:02:43;;;;;;;3.60;1.92;;;;;;;18.81;68.72;101675.00;5035613;28;20049;-69
2023/09/05 02:05:08;;;;;;;3.47;1.90;;;;;;;18.81;68.74;101662.66;5006193;28;20030;-70
2023/09/05 02:07:34;;;;;;;3.58;1.35;;;;;;;18.75;69.24;101670.47;5002990;28;20049;-70
2023/09/05 02:09:59;;;;;;;3.05;1.83;;;;;;;18.66;69.89;101678.47;5034483;28;20033;-70
2023/09/05 02:12:25;;;;;;;3.22;1.75;;;;;;;18.75;69.47;101668.66;5042247;28;20107;-70
2023/09/05 02:14:50;;;;;;;4.03;1.60;;;;;;;18.72;69.49;101663.78;5022719;28;20032;-70
2023/09/05 02:17:20;;;;;;;4.35;1.75;;;;;;;18.73;69.25;101668.03;5049863;28;20045;-69
2023/09/05 02:19:46;;;;;;;4.10;1.73;;;;;;;18.71;69.40;101651.66;5019316;28;20100;-70
2023/09/05 02:22:11;;;;;;;2.53;1.80;;;;;;;18.61;69.92;101659.88;5025864;28;20634;-70
2023/09/05 02:24:37;;;;;;;2.25;1.60;;;;;;;18.67;69.52;101668.81;5026071;28;20037;-70
2023/09/05 02:27:03;;;;;;;5.10;1.60;;;;;;;18.64;69.74;101658.66;5018904;28;20069;-70
2023/09/05 02:29:28;;;;;;;4.00;1.90;;;;;;;18.60;70.23;101670.56;5025869;28;20042;-70
2023/09/05 02:31:54;;;;;;;5.15;1.70;;;;;;;18.51;70.79;101674.31;5018620;28;20041;-70
2023/09/05 02:34:19;;;;;;;3.45;1.73;;;;;;;18.64;69.80;101669.16;5008845;28;20056;-70
2023/09/05 02:36:45;;;;;;;4.03;2.05;;;;;;;18.55;70.28;101670.28;5017527;28;20033;-70
2023/09/05 02:39:11;;;;;;;3.17;1.52;;;;;;;18.54;70.29;101673.94;5023975;28;20029;-69
2023/09/05 02:41:36;;;;;;;3.60;1.65;;;;;;;18.61;69.72;101669.53;5019955;28;21995;-69
2023/09/05 02:44:02;;;;;;;5.40;1.65;;;;;;;18.52;70.29;101668.06;5022781;28;20104;-70
2023/09/05 02:46:28;;;;;;;4.75;2.40;;;;;;;18.47;70.14;101674.66;5002108;28;20945;-69
2023/09/05 02:48:54;;;;;;;8.45;1.85;;;;;;;18.42;70.33;101673.59;5024726;28;20037;-70
2023/09/05 02:51:19;;;;;;;6.35;2.22;;;;;;;18.51;70.25;101666.41;5020287;28;20033;-70
2023/09/05 02:53:44;;;;;;;8.63;2.22;;;;;;;18.48;70.31;101672.88;5046173;28;20040;-70
2023/09/05 02:56:10;;;;;;;5.93;1.90;;;;;;;18.47;70.07;101669.41;5021331;28;20029;-69
2023/09/05 02:58:35;;;;;;;4.70;1.95;;;;;;;18.43;70.23;101669.97;5023578;28;20528;-70
2023/09/05 03:01:03;;;;;;;3.30;1.70;;;;;;;18.31;70.43;101667.03;5018940;28;20702;-71
2023/09/05 03:03:29;;;;;;;4.45;1.73;;;;;;;18.38;70.46;101667.09;5021177;28;20041;-70
2023/09/05 03:05:55;;;;;;;5.25;2.03;;;;;;;18.43;70.00;101664.72;5021094;28;20052;-70
2023/09/05 03:08:20;;;;;;;4.85;1.80;;;;;;;18.29;70.84;101654.09;5017412;28;20139;-69
2023/09/05 03:10:51;;;;;;;3.13;1.80;;;;;;;18.24;70.65;101666.16;5023857;28;20024;-69
2023/09/05 03:13:17;;;;;;;3.67;1.90;;;;;;;18.38;70.01;101660.03;5021415;28;20059;-69
2023/09/05 03:15:43;;;;;;;3.90;2.10;;;;;;;18.37;70.04;101662.88;5023459;28;20021;-70
2023/09/05 03:18:08;;;;;;;3.08;1.65;;;;;;;18.31;70.48;101668.84;5022716;28;20133;-70
2023/09/05 03:20:34;;;;;;;3.88;1.75;;;;;;;18.27;70.76;101663.13;5017796;28;20489;-70
2023/09/05 03:22:59;;;;;;;3.85;1.83;;;;;;;18.34;69.92;101665.84;5017912;28;20034;-70
2023/09/05 03:25:25;;;;;;;4.60;1.88;;;;;;;18.28;69.81;101668.22;5016801;28;21059;-69
2023/09/05 03:27:50;;;;;;;3.78;2.00;;;;;;;18.19;70.42;101665.88;5003827;28;20038;-70
2023/09/05 03:30:16;;;;;;;4.57;1.77;;;;;;;18.24;70.23;101666.16;5020802;28;20033;-69
2023/09/05 03:32:41;;;;;;;5.88;1.65;;;;;;;18.36;69.69;101669.09;5005001;28;20415;-70
2023/09/05 03:35:08;;;;;;;3.20;1.60;;;;;;;18.23;69.92;101661.88;5006610;28;20094;-72
2023/09/05 03:37:33;;;;;;;2.00;1.75;;;;;;;18.25;70.10;101655.47;5016706;28;20050;-70
2023/09/05 03:39:59;;;;;;;3.25;1.70;;;;;;;18.30;69.49;101660.16;5025980;28;20451;-69
2023/09/05 03:42:24;;;;;;;3.00;1.63;;;;;;;18.33;69.07;101656.34;5003036;28;20436;-69
2023/09/05 03:44:51;;;;;;;4.80;1.75;;;;;;;18.35;69.42;101659.63;5033581;28;20072;-70
2023/09/05 03:47:16;;;;;;;6.03;2.00;;;;;;;18.31;69.19;101656.53;5024386;28;20034;-69
2023/09/05 03:49:42;;;;;;;7.65;2.30;;;;;;;18.35;68.98;101657.00;5023632;28;20092;-70
2023/09/05 03:52:07;;;;;;;3.30;2.08;;;;;;;18.34;68.84;101655.34;5023659;28;20081;-70
2023/09/05 03:54:33;;;;;;;2.45;1.60;;;;;;;18.27;69.30;101663.13;5024427;28;20095;-69
2023/09/05 03:56:58;;;;;;;4.40;2.10;;;;;;;18.34;68.89;101656.16;5022478;28;20033;-69
2023/09/05 03:59:23;;;;;;;3.00;1.60;;;;;;;18.28;69.00;101655.09;5019118;28;20030;-69
2023/09/05 04:01:49;;;;;;;5.20;1.75;;;;;;;18.26;69.88;101653.66;5046267;28;20492;-71
2023/09/05 04:04:15;;;;;;;3.42;1.75;;;;;;;18.26;69.20;101662.34;5022702;28;20033;-70
2023/09/05 04:06:40;;;;;;;4.40;1.85;;;;;;;18.26;69.10;101656.28;5009329;28;20064;-69
2023/09/05 04:09:06;;;;;;;3.35;1.98;;;;;;;18.21;69.38;101656.81;5019042;28;20041;-70
2023/09/05 04:11:31;;;;;;;5.00;1.50;;;;;;;18.26;68.88;101649.22;5016319;28;20092;-69
2023/09/05 04:13:57;;;;;;;3.72;1.88;;;;;;;18.17;69.72;101639.81;5020615;28;20041;-70
2023/09/05 04:16:22;;;;;;;2.55;1.65;;;;;;;18.18;69.48;101643.28;5006237;28;20036;-69
2023/09/05 04:18:48;;;;;;;2.88;1.50;;;;;;;18.12;69.99;101647.47;5023313;28;20052;-69
2023/09/05 04:21:13;;;;;;;3.22;1.65;;;;;;;18.08;69.91;101649.66;5019323;28;20045;-69
2023/09/05 04:23:39;;;;;;;3.95;1.90;;;;;;;18.08;69.59;101640.94;5017981;28;20043;-69
2023/09/05 04:26:04;;;;;;;3.90;1.63;;;;;;;18.03;70.25;101659.06;5019194;28;20087;-70
2023/09/05 04:28:30;;;;;;;4.38;1.63;;;;;;;18.14;69.61;101655.13;5017720;28;20041;-70
2023/09/05 04:31:02;;;;;;;2.85;1.60;;;;;;;18.06;70.10;101656.06;5003262;28;20091;-68
2023/09/05 04:33:31;;;;;;;3.33;1.77;;;;;;;18.02;70.45;101650.38;5016350;28;20037;-70
2023/09/05 04:35:56;;;;;;;3.45;2.03;;;;;;;18.06;69.91;101658.69;5021340;28;20033;-70
2023/09/05 04:38:22;;;;;;;2.60;1.80;;;;;;;18.03;70.22;101656.44;5036547;23;20407;-66
2023/09/05 04:40:47;;;;;;;3.53;1.73;;;;;;;18.09;69.98;101666.19;4997284;28;20042;-68
2023/09/05 04:43:13;;;;;;;3.00;1.83;;;;;;;18.03;70.08;101661.69;5005145;28;20025;-68
2023/09/05 04:45:38;;;;;;;4.72;1.80;;;;;;;17.91;70.93;101661.31;5007128;28;20048;-69
2023/09/05 04:48:04;;;;;;;3.03;2.00;;;;;;;17.83;71.48;101661.41;5009609;28;20487;-68
2023/09/05 04:50:30;;;;;;;2.80;1.60;;;;;;;17.84;71.62;101663.88;5009556;28;20021;-68
2023/09/05 04:52:56;;;;;;;4.20;1.80;;;;;;;17.89;71.21;101665.94;5008797;28;20578;-69
2023/09/05 04:55:22;;;;;;;3.40;1.77;;;;;;;17.69;72.51;101671.75;5006283;28;20044;-68
2023/09/05 04:57:48;;;;;;;3.55;1.77;;;;;;;17.60;73.55;101672.03;5007146;28;20038;-68
2023/09/05 05:00:14;;;;;;;3.10;1.60;;;;;;;17.51;74.85;101671.28;5010608;28;20041;-68
2023/09/05 05:02:39;;;;;;;3.55;1.90;;;;;;;17.44;75.47;101673.81;4996848;28;20034;-68
2023/09/05 05:05:06;;;;;;;3.17;2.00;;;;;;;17.36;76.52;101680.94;5006280;28;20038;-68
2023/09/05 05:07:32;;;;;;;2.92;1.73;;;;;;;17.45;74.32;101682.50;5008733;28;20038;-68
2023/09/05 05:09:57;;;;;;;4.60;1.70;;;;;;;17.36;75.19;101681.75;5006992;28;20173;-68
2023/09/05 05:12:24;;;;;;;4.80;1.67;;;;;;;17.32;76.61;101691.78;5004311;28;20029;-68
2023/09/05 05:14:49;;;;;;;4.03;1.77;;;;;;;17.27;77.72;101695.94;5010686;28;20036;-68
2023/09/05 05:17:14;;;;;;;2.42;1.70;;;;;;;17.22;78.46;101693.84;5006594;28;20037;-68
2023/09/05 05:19:40;;;;;;;3.83;1.70;;;;;;;17.19;78.64;101707.31;5010612;28;20092;-68
2023/09/05 05:22:06;;;;;;;3.63;1.90;;;;;;;17.15;79.26;101702.63;5005664;28;20069;-68
2023/09/05 05:24:31;;;;;;;5.35;1.95;;;;;;;17.14;79.83;101712.28;5008418;28;20034;-68
2023/09/05 05:26:57;;;;;;;3.15;2.08;;;;;;;17.11;80.40;101702.97;4991034;28;20043;-68
2023/09/05 05:29:22;;;;;;;2.55;1.70;;;;;;;17.11;80.96;101702.16;5006103;28;20053;-69
2023/09/05 05:31:48;;;;;;;3.38;2.20;;;;;;;17.07;81.33;101701.69;5004953;28;20031;-68
2023/09/05 05:34:15;;;;;;;6.22;2.20;;;;;;;17.06;81.91;101704.47;5010179;28;20458;-68
2023/09/05 05:36:40;;;;;;;4.90;2.28;;;;;;;17.05;82.30;101705.50;5007796;28;20041;-68
2023/09/05 05:39:06;;;;;;;3.90;2.08;;;;;;;17.03;81.90;101697.00;5004409;28;20036;-68
2023/09/05 05:41:34;;;;;;;3.08;2.05;;;;;;;17.15;78.93;101698.19;5009647;28;20053;-68
2023/09/05 05:43:59;;;;;;;2.47;1.70;;;;;;;17.23;78.72;101707.78;5012084;28;20060;-68
2023/09/05 05:46:25;;;;;;;7.72;1.80;;;;;;;17.29;76.99;101702.66;5003683;28;20041;-68
2023/09/05 05:48:51;;;;;;;5.18;2.00;;;;;;;17.52;75.18;101707.81;5009885;28;21314;-68
2023/09/05 05:51:17;;;;;;;4.32;2.00;;;;;;;17.47;75.61;101715.41;4985023;28;20080;-68
2023/09/05 05:53:43;;;;;;;9.82;3.55;;;;;;;17.44;75.62;101720.19;5003940;28;20415;-69
2023/09/05 05:56:10;;;;;;;2.65;1.60;;;;;;;17.48;76.13;101718.84;5005696;28;20049;-68
2023/09/05 05:58:35;;;;;;;3.25;2.20;;;;;;;17.53;75.78;101724.34;5004789;28;20046;-68
2023/09/05 06:01:01;;;;;;;3.75;2.15;;;;;;;17.64;75.68;101723.91;5003182;28;20041;-69
2023/09/05 06:03:27;;;;;;;3.20;1.90;;;;;;;17.67;74.89;101720.13;5003033;28;20041;-68
2023/09/05 06:05:52;;;;;;;5.47;2.10;;;;;;;17.58;75.67;101722.00;5017913;28;20133;-68
2023/09/05 06:08:18;;;;;;;4.47;1.98;;;;;;;17.81;75.03;101715.88;5009235;28;20026;-68
2023/09/05 06:10:44;;;;;;;5.63;2.47;;;;;;;17.79;74.85;101718.66;5015891;28;20037;-69
2023/09/05 06:13:11;;;;;;;3.58;1.77;;;;;;;17.90;74.34;101715.63;5006830;28;20029;-68
2023/09/05 06:15:37;;;;;;;2.78;1.60;;;;;;;18.03;73.70;101714.97;5002196;28;20432;-69
2023/09/05 06:18:04;;;;;;;7.65;1.83;;;;;;;17.98;74.04;101717.31;5005421;28;20092;-68
2023/09/05 06:20:32;;;;;;;3.30;1.70;;;;;;;18.10;73.66;101717.66;5008073;28;20037;-68
2023/09/05 06:22:58;;;;;;;4.82;2.20;;;;;;;18.11;73.66;101715.88;5008746;28;20711;-68
2023/09/05 06:25:24;;;;;;;5.82;2.33;;;;;;;18.38;72.10;101706.47;5008576;28;20034;-68
2023/09/05 06:27:50;;;;;;;2.38;1.67;;;;;;;18.46;71.98;101716.88;4998677;28;20045;-67
2023/09/05 06:30:16;;;;;;;9.90;3.53;;;;;;;18.44;72.59;101709.19;5003462;28;20037;-68
2023/09/05 06:32:42;;;;;;;2.70;1.77;;;;;;;18.50;71.87;101707.63;5005930;28;20026;-68
2023/09/05 06:35:09;;;;;;;5.25;1.90;;;;;;;18.67;71.02;101706.38;5005131;28;20067;-68
2023/09/05 06:37:36;;;;;;;3.72;1.70;;;;;;;18.91;70.36;101709.66;5005361;28;20030;-68
2023/09/05 06:40:09;;;;;;;6.32;2.28;;;;;;;18.94;70.63;101704.00;5002318;28;20061;-68
2023/09/05 06:42:39;;;;;;;5.25;1.88;;;;;;;19.06;70.42;101699.88;5003862;28;20045;-68
2023/09/05 06:45:05;;;;;;;4.30;1.90;;;;;;;19.32;68.72;101698.44;5010533;28;20052;-68
2023/09/05 06:47:31;;;;;;;7.53;2.60;;;;;;;19.52;67.77;101705.66;4991294;28;20414;-68
2023/09/05 06:49:56;;;;;;;6.75;1.95;;;;;;;19.65;67.75;101705.72;5007199;28;20034;-68
2023/09/05 06:52:22;;;;;;;4.93;1.90;;;;;;;19.99;66.04;101710.16;5002428;28;20042;-68
2023/09/05 06:54:47;;;;;;;4.35;1.90;;;;;;;20.41;64.57;101710.09;5005737;28;20107;-68
2023/09/05 06:57:13;;;;;;;3.53;2.22;;;;;;;20.98;62.43;101713.22;5006656;28;20129;-68
2023/09/05 06:59:38;;;;;;;3.47;1.63;;;;;;;21.53;59.78;101708.53;5006006;28;20072;-68
2023/09/05 07:02:04;;;;;;;3.85;1.90;;;;;;;;;;5000430;28;20045;-67
2023/09/05 07:04:31;;;;;;;5.25;1.88;;;;;;;22.66;55.92;101701.91;4983989;28;20124;-68
2023/09/05 07:06:57;;;;;;;6.97;2.20;;;;;;;22.76;54.38;101700.63;5005386;28;20049;-68
2023/09/05 07:09:23;;;;;;;3.53;2.15;;;;;;;22.99;53.81;101700.00;5009443;28;20040;-67
2023/09/05 07:11:48;;;;;;;6.75;2.85;;;;;;;23.32;53.79;101703.19;5008461;28;20038;-68
2023/09/05 07:14:14;;;;;;;6.10;2.15;;;;;;;23.61;52.22;101711.41;5006842;28;20042;-67
2023/09/05 07:16:39;;;;;;;7.07;2.33;;;;;;;24.06;51.54;101703.16;5001763;28;20057;-68
2023/09/05 07:19:05;;;;;;;3.88;1.90;;;;;;;24.33;50.45;101702.78;5007775;28;20041;-68
2023/09/05 07:21:30;;;;;;;7.07;1.90;;;;;;;24.47;49.46;101698.13;5005059;28;20041;-69
2023/09/05 07:23:56;;;;;;;4.65;2.10;;;;;;;24.58;49.92;101699.19;5005787;28;20038;-68
2023/09/05 07:26:21;;;;;;;5.25;1.77;;;;;;;25.09;48.55;101697.75;5004585;28;20130;-68
2023/09/05 07:28:47;;;;;;;5.45;1.92;;;;;;;24.95;48.51;101691.03;5005732;28;20050;-68
2023/09/05 07:31:14;;;;;;;5.95;2.10;;;;;;;24.57;48.82;101694.94;5007078;28;20092;-68
2023/09/05 07:33:41;;;;;;;5.00;1.85;;;;;;;24.57;48.69;101693.09;5018369;28;20033;-68
2023/09/05 07:36:07;;;;;;;6.35;2.33;;;;;;;24.56;49.41;101688.00;5004911;28;20043;-68
2023/09/05 07:38:32;;;;;;;3.55;1.65;;;;;;;24.79;49.37;101687.22;5007681;28;20395;-68
2023/09/05 07:41:05;;;;;;;5.60;2.17;;;;;;;24.75;48.33;101681.59;5003751;28;20038;-68
2023/09/05 07:43:34;;;;;;;6.78;2.08;;;;;;;25.23;46.90;101690.38;5002045;28;20388;-69
2023/09/05 07:46:00;;;;;;;4.05;1.90;;;;;;;25.37;46.70;101678.47;5003244;28;20196;-68
2023/09/05 07:48:25;;;;;;;7.22;2.35;;;;;;;25.99;46.37;101680.50;5005109;28;20035;-69
2023/09/05 07:55:03;;;;;;;2.90;1.90;;;;;;;24.99;47.17;101685.03;5015515;22;20060;-68
2023/09/05 07:57:29;;;;;;;6.82;2.53;;;;;;;25.08;46.50;101679.41;5015692;28;20041;-68
2023/09/05 07:59:54;;;;;;;4.38;1.83;;;;;;;25.13;47.01;101690.94;5004904;28;20095;-68
2023/09/05 08:02:20;;;;;;;5.00;2.13;;;;;;;25.62;46.43;101686.13;5004309;28;20037;-68
2023/09/05 08:04:45;;;;;;;7.30;2.15;;;;;;;25.57;46.45;101687.88;5008665;28;20041;-69
2023/09/05 08:07:11;;;;;;;7.25;2.15;;;;;;;25.57;45.81;101685.22;5022949;28;20065;-67
2023/09/05 08:09:36;;;;;;;4.75;2.10;;;;;;;25.71;45.90;101680.44;5010561;28;20692;-68
2023/09/05 08:12:02;;;;;;;4.35;2.03;;;;;;;25.47;46.11;101682.34;5016134;28;20048;-68
2023/09/05 08:14:28;;;;;;;4.40;2.03;;;;;;;25.60;45.69;101679.47;5022755;28;20026;-68
2023/09/05 08:19:25;;;;;;;5.40;1.75;;;;;;;25.75;46.46;101676.28;4941637;28;20059;-70
2023/09/05 08:21:51;;;;;;;5.97;1.98;;;;;;;25.63;46.37;101681.63;4945251;28;20375;-71
2023/09/05 08:24:16;;;;;;;3.70;2.10;;;;;;;25.49;46.95;101673.13;4923590;28;20540;-69
2023/09/05 08:26:41;;;;;;;3.22;1.80;;;;;;;25.99;45.09;101674.34;4928723;28;20051;-69
2023/09/05 08:29:07;;;;;;;11.60;2.00;;;;;;;26.02;45.50;101679.22;4947044;28;20043;-70
2023/09/05 08:31:32;;;;;;;6.07;2.20;;;;;;;25.91;45.15;101674.72;4949226;28;20043;-70
2023/09/05 08:33:58;;;;;;;5.40;2.08;;;;;;;26.00;44.44;101682.09;4945521;28;20042;-70
2023/09/05 08:36:24;;;;;;;9.82;1.92;;;;;;;25.94;44.94;101679.59;4947633;28;20498;-71
2023/09/05 08:38:50;;;;;;;9.65;1.85;;;;;;;26.18;44.66;101674.97;4949282;28;20039;-71
2023/09/05 08:41:15;;;;;;;3.70;2.30;;;;;;;26.12;44.58;101671.41;4945237;28;20053;-69
2023/09/05 08:43:41;;;;;;;8.20;2.00;;;;;;;26.07;44.18;101676.66;4914308;28;20027;-69
2023/09/05 08:46:09;;;;;;;3.78;1.70;;;;;;;26.14;44.14;101666.66;4933221;28;20588;-69
2023/09/05 08:48:34;;;;;;;5.88;2.00;;;;;;;26.33;44.50;101663.78;4929242;28;20040;-69
2023/09/05 08:51:02;;;;;;;2.70;1.80;;;;;;;26.47;44.46;101665.09;4947952;28;20098;-70
2023/09/05 08:53:36;;;;;;;3.30;1.90;;;;;;;26.60;43.94;101674.63;4928826;28;20437;-69
2023/09/05 08:56:01;;;;;;;6.28;1.95;;;;;;;26.94;44.07;101667.41;4942594;28;20035;-68
2023/09/05 08:58:28;;;;;;;6.75;1.98;;;;;;;27.36;43.87;101664.25;4930613;28;20032;-69
2023/09/05 09:00:54;;;;;;;5.25;1.92;;;;;;;26.98;43.32;101671.19;4941656;28;21009;-74
2023/09/05 09:03:19;;;;;;;4.85;2.00;;;;;;;26.40;44.08;101664.44;4942744;28;20039;-69
2023/09/05 09:05:46;;;;;;;4.90;1.95;;;;;;;26.66;43.87;101673.66;4933150;28;20055;-69
2023/09/05 09:08:12;;;;;;;5.85;2.38;;;;;;;26.92;44.14;101668.72;4947676;28;20039;-68
2023/09/05 09:10:38;;;;;;;3.40;2.15;;;;;;;26.99;44.37;101656.84;4944429;28;20035;-70
2023/09/05 09:13:24;;;;;;;5.47;1.80;;;;;;;26.77;43.57;101656.00;4950284;28;20661;-69
2023/09/05 09:15:51;;;;;;;3.53;1.60;;;;;;;27.04;43.68;101657.97;4929446;28;20538;-69
2023/09/05 09:18:20;;;;;;;3.45;2.05;;;;;;;26.85;43.95;101655.56;4948485;28;21224;-69
2023/09/05 09:20:49;;;;;;;4.05;1.88;;;;;;;27.18;43.56;101669.84;4927429;28;20169;-71
2023/09/05 09:23:35;;;;;;;4.15;1.88;;;;;;;26.84;44.29;101661.13;4946228;28;20040;-70
2023/09/05 09:26:02;;;;;;;10.73;1.88;;;;;;;26.84;44.00;101663.78;4948176;28;20520;-70
2023/09/05 09:28:31;;;;;;;3.47;1.98;;;;;;;26.64;43.99;101664.31;4944693;28;20047;-70
2023/09/05 09:31:02;;;;;;;2.45;1.63;;;;;;;26.90;44.48;101653.00;4931619;28;20043;-71
2023/09/05 09:33:29;;;;;;;6.00;1.85;;;;;;;27.02;44.54;101652.88;4943889;28;20492;-69
2023/09/05 09:36:03;;;;;;;7.65;2.25;;;;;;;27.45;44.42;101656.63;4945261;28;20049;-69
2023/09/05 09:38:29;;;;;;;4.25;1.92;;;;;;;27.63;43.17;101646.72;4949444;28;20043;-70
2023/09/05 09:40:55;;;;;;;4.60;1.88;;;;;;;27.33;42.99;101642.63;4935306;28;20058;-69
2023/09/05 09:43:21;;;;;;;7.82;1.60;;;;;;;27.45;42.39;101642.53;4945941;28;20047;-70
2023/09/05 09:45:46;;;;;;;4.72;2.22;;;;;;;27.38;42.83;101637.38;4924050;28;20042;-70
2023/09/05 09:48:15;;;;;;;3.10;1.70;;;;;;;27.56;43.24;101639.72;4917397;28;20019;-69
2023/09/05 09:50:43;;;;;;;6.07;1.73;;;;;;;27.26;43.01;101645.50;4946504;28;20079;-70
2023/09/05 09:53:12;;;;;;;3.72;2.10;;;;;;;27.27;44.08;101647.09;4948303;28;20498;-69
2023/09/05 09:55:43;;;;;;;4.57;2.05;;;;;;;27.44;43.64;101646.22;4927218;28;22982;-69
2023/09/05 09:58:13;;;;;;;3.83;1.60;;;;;;;27.75;43.48;101650.03;4944924;28;20177;-69
2023/09/05 10:00:44;;;;;;;5.95;1.60;;;;;;;28.04;42.80;101650.59;4946540;28;20490;-70
2023/09/05 10:03:10;;;;;;;5.00;2.03;;;;;;;28.26;43.68;101657.75;4928434;28;20058;-70
2023/09/05 10:05:41;;;;;;;2.72;1.65;;;;;;;28.19;42.79;101659.81;4946444;28;20035;-68
2023/09/05 10:08:10;;;;;;;2.50;1.75;;;;;;;28.16;42.21;101658.44;4967818;28;20070;-69
2023/09/05 10:10:39;;;;;;;5.20;1.92;;;;;;;28.12;42.58;101649.34;4933451;28;20039;-69
2023/09/05 10:13:08;;;;;;;4.18;2.13;;;;;;;27.91;42.61;101651.81;4963643;28;20046;-69
2023/09/05 10:15:38;;;;;;;2.25;1.65;;;;;;;27.94;42.92;101655.84;4966087;28;20035;-71
2023/09/05 10:18:07;;;;;;;4.00;2.03;;;;;;;27.76;42.76;101646.31;4964405;28;20382;-69
2023/09/05 10:20:34;;;;;;;5.45;1.65;;;;;;;27.55;43.21;101645.28;4959813;28;20129;-70
2023/09/05 10:23:00;;;;;;;3.92;1.65;;;;;;;27.56;43.14;101631.72;4933581;28;20038;-70
2023/09/05 10:25:27;;;;;;;5.15;1.67;;;;;;;27.60;43.64;101629.38;4961802;28;20034;-69
2023/09/05 10:27:53;;;;;;;3.65;1.65;;;;;;;27.88;43.79;101633.66;4951392;28;20067;-69
2023/09/05 10:30:19;;;;;;;4.95;1.80;;;;;;;27.97;43.85;101626.03;4968953;28;20031;-69
2023/09/05 10:32:47;;;;;;;4.05;1.92;;;;;;;28.07;41.82;101630.66;4962330;28;20085;-69
2023/09/05 10:35:20;;;;;;;8.00;2.88;;;;;;;27.91;41.71;101635.03;4950609;28;20045;-70
2023/09/05 10:37:48;;;;;;;4.65;1.70;;;;;;;28.18;42.88;101639.53;4961933;28;20110;-69
2023/09/05 10:40:14;;;;;;;5.85;1.77;;;;;;;28.31;42.89;101639.09;4962117;28;20485;-69
2023/09/05 10:42:49;;;;;;;3.60;1.65;;;;;;;28.60;43.06;101622.81;4966051;28;20042;-69
2023/09/05 10:45:23;;;;;;;6.13;1.98;;;;;;;28.25;41.32;101640.91;4969507;28;20042;-70
2023/09/05 10:47:56;;;;;;;3.03;1.60;;;;;;;27.95;42.44;101626.28;4962119;28;20534;-69
2023/09/05 10:50:23;;;;;;;5.65;1.80;;;;;;;28.20;42.79;101621.41;4946292;28;20042;-69
2023/09/05 10:53:10;;;;;;;4.13;1.90;;;;;;;28.44;42.53;101628.00;4962342;28;20047;-69
2023/09/05 10:55:44;;;;;;;4.43;1.63;;;;;;;28.28;42.55;101616.44;4951920;28;20035;-69
2023/09/05 10:58:42;;;;;;;6.07;2.30;;;;;;;28.11;42.77;101619.22;4965214;28;20086;-71
2023/09/05 11:01:30;;;;;;;4.40;1.67;;;;;;;28.34;42.07;101611.94;4948233;28;20092;-70
2023/09/05 11:03:56;;;;;;;8.23;2.83;;;;;;;28.18;42.05;101623.53;4947709;28;20034;-68
2023/09/05 11:06:25;;;;;;;3.92;1.95;;;;;;;28.27;42.56;101616.69;4965228;28;20044;-69
2023/09/05 11:08:57;;;;;;;4.13;1.50;;;;;;;28.23;42.26;101604.91;4965496;28;20445;-69
2023/09/05 11:11:23;;;;;;;4.13;1.67;;;;;;;28.22;41.84;101598.78;4949513;28;20493;-70
2023/09/05 11:13:50;;;;;;;2.22;1.60;;;;;;;28.19;42.53;101606.50;4964631;28;20038;-68
2023/09/05 11:16:15;;;;;;;2.83;1.67;;;;;;;28.21;43.14;101599.84;4963063;28;20038;-68
2023/09/05 11:18:52;;;;;;;4.18;1.95;;;;;;;28.33;43.30;101591.66;4951630;28;20037;-69
2023/09/05 11:21:22;;;;;;;4.38;1.95;;;;;;;28.33;42.30;101602.31;4962078;28;20677;-69
2023/09/05 11:23:52;;;;;;;5.82;1.85;;;;;;;28.37;42.33;101600.75;4965816;28;20469;-70
2023/09/05 11:26:18;;;;;;;3.55;1.92;;;;;;;28.46;42.34;101599.22;4964107;28;20125;-69
2023/09/05 11:28:48;;;;;;;2.80;1.58;;;;;;;28.54;42.33;101595.31;4962155;28;20470;-69
2023/09/05 11:31:14;;;;;;;6.43;2.15;;;;;;;28.51;42.08;101593.91;4947474;28;20525;-70
2023/09/05 11:33:40;;;;;;;3.13;1.50;;;;;;;28.64;42.49;101581.22;4951608;28;20039;-69